sensor_id;sensor_type;location;lat;lon;timestamp;P1;durP1;ratioP1;P2;durP2;ratioP2
19788;SDS011;10054;59.332;18.244;2023-08-06T00:00:44;4.00;;;2.97;;
19788;SDS011;10054;59.332;18.244;2023-08-06T00:03:13;4.63;;;2.67;;
19788;SDS011;10054;59.332;18.244;2023-08-06T00:05:42;6.17;;;2.97;;
19788;SDS011;10054;59.332;18.244;2023-08-06T00:08:11;4.73;;;2.73;;
19788;SDS011;10054;59.332;18.244;2023-08-06T00:10:40;5.30;;;3.00;;
19788;SDS011;10054;59.332;18.244;2023-08-06T00:13:08;4.47;;;3.40;;
19788;SDS011;10054;59.332;18.244;2023-08-06T00:15:37;4.30;;;3.03;;
19788;SDS011;10054;59.332;18.244;2023-08-06T00:18:06;5.07;;;3.07;;
19788;SDS011;10054;59.332;18.244;2023-08-06T00:20:35;5.30;;;2.80;;
19788;SDS011;10054;59.332;18.244;2023-08-06T00:23:08;6.07;;;3.00;;
19788;SDS011;10054;59.332;18.244;2023-08-06T00:25:36;5.87;;;3.00;;
19788;SDS011;10054;59.332;18.244;2023-08-06T00:28:05;4.70;;;3.00;;
19788;SDS011;10054;59.332;18.244;2023-08-06T00:30:34;5.30;;;2.87;;
19788;SDS011;10054;59.332;18.244;2023-08-06T00:33:03;5.20;;;2.97;;
19788;SDS011;10054;59.332;18.244;2023-08-06T00:35:31;3.50;;;2.70;;
19788;SDS011;10054;59.332;18.244;2023-08-06T00:38:00;4.60;;;2.97;;
19788;SDS011;10054;59.332;18.244;2023-08-06T00:40:29;3.80;;;2.70;;
19788;SDS011;10054;59.332;18.244;2023-08-06T00:42:58;4.93;;;2.90;;
19788;SDS011;10054;59.332;18.244;2023-08-06T00:45:26;4.77;;;2.90;;
19788;SDS011;10054;59.332;18.244;2023-08-06T00:47:57;4.73;;;2.97;;
19788;SDS011;10054;59.332;18.244;2023-08-06T00:50:26;4.93;;;2.80;;
19788;SDS011;10054;59.332;18.244;2023-08-06T00:52:55;3.23;;;2.60;;
19788;SDS011;10054;59.332;18.244;2023-08-06T00:55:24;4.10;;;2.73;;
19788;SDS011;10054;59.332;18.244;2023-08-06T00:57:53;4.43;;;2.73;;
19788;SDS011;10054;59.332;18.244;2023-08-06T01:00:23;3.63;;;2.77;;
19788;SDS011;10054;59.332;18.244;2023-08-06T01:02:53;4.10;;;2.67;;
19788;SDS011;10054;59.332;18.244;2023-08-06T01:05:22;4.47;;;2.57;;
19788;SDS011;10054;59.332;18.244;2023-08-06T01:10:58;3.57;;;2.57;;
19788;SDS011;10054;59.332;18.244;2023-08-06T01:13:45;5.20;;;2.80;;
19788;SDS011;10054;59.332;18.244;2023-08-06T01:16:09;2.43;;;2.30;;
19788;SDS011;10054;59.332;18.244;2023-08-06T01:18:39;3.10;;;2.80;;
19788;SDS011;10054;59.332;18.244;2023-08-06T01:21:10;3.90;;;2.87;;
19788;SDS011;10054;59.332;18.244;2023-08-06T01:23:40;4.27;;;2.70;;
19788;SDS011;10054;59.332;18.244;2023-08-06T01:26:24;3.40;;;2.50;;
19788;SDS011;10054;59.332;18.244;2023-08-06T01:28:56;3.63;;;2.40;;
19788;SDS011;10054;59.332;18.244;2023-08-06T01:31:35;4.30;;;2.70;;
19788;SDS011;10054;59.332;18.244;2023-08-06T01:34:01;4.57;;;2.60;;
19788;SDS011;10054;59.332;18.244;2023-08-06T01:36:31;2.97;;;2.60;;
19788;SDS011;10054;59.332;18.244;2023-08-06T01:39:01;4.23;;;2.50;;
19788;SDS011;10054;59.332;18.244;2023-08-06T01:41:31;4.07;;;2.77;;
19788;SDS011;10054;59.332;18.244;2023-08-06T01:43:59;4.27;;;2.60;;
19788;SDS011;10054;59.332;18.244;2023-08-06T01:46:28;5.53;;;2.73;;
19788;SDS011;10054;59.332;18.244;2023-08-06T01:48:57;2.87;;;2.20;;
19788;SDS011;10054;59.332;18.244;2023-08-06T01:51:26;3.80;;;2.40;;
19788;SDS011;10054;59.332;18.244;2023-08-06T01:53:55;4.03;;;2.70;;
19788;SDS011;10054;59.332;18.244;2023-08-06T01:56:24;3.60;;;2.67;;
19788;SDS011;10054;59.332;18.244;2023-08-06T01:58:53;2.83;;;2.53;;
19788;SDS011;10054;59.332;18.244;2023-08-06T02:01:22;4.30;;;2.90;;
19788;SDS011;10054;59.332;18.244;2023-08-06T02:03:50;5.53;;;3.00;;
19788;SDS011;10054;59.332;18.244;2023-08-06T02:06:19;4.63;;;2.87;;
19788;SDS011;10054;59.332;18.244;2023-08-06T02:08:48;4.63;;;2.97;;
19788;SDS011;10054;59.332;18.244;2023-08-06T02:11:17;3.23;;;2.93;;
19788;SDS011;10054;59.332;18.244;2023-08-06T02:13:46;4.17;;;2.83;;
19788;SDS011;10054;59.332;18.244;2023-08-06T02:16:18;3.17;;;2.77;;
19788;SDS011;10054;59.332;18.244;2023-08-06T02:18:47;4.13;;;3.00;;
19788;SDS011;10054;59.332;18.244;2023-08-06T02:21:16;5.37;;;2.80;;
19788;SDS011;10054;59.332;18.244;2023-08-06T02:23:45;5.40;;;3.03;;
19788;SDS011;10054;59.332;18.244;2023-08-06T02:26:13;4.33;;;3.00;;
19788;SDS011;10054;59.332;18.244;2023-08-06T02:28:42;4.57;;;3.00;;
19788;SDS011;10054;59.332;18.244;2023-08-06T02:31:13;4.03;;;3.10;;
19788;SDS011;10054;59.332;18.244;2023-08-06T02:33:42;4.63;;;2.90;;
19788;SDS011;10054;59.332;18.244;2023-08-06T02:36:11;2.90;;;2.70;;
19788;SDS011;10054;59.332;18.244;2023-08-06T02:38:40;3.90;;;2.80;;
19788;SDS011;10054;59.332;18.244;2023-08-06T02:41:09;3.13;;;2.83;;
19788;SDS011;10054;59.332;18.244;2023-08-06T02:43:37;4.23;;;3.20;;
19788;SDS011;10054;59.332;18.244;2023-08-06T02:46:07;5.07;;;2.90;;
19788;SDS011;10054;59.332;18.244;2023-08-06T02:48:35;3.10;;;2.80;;
19788;SDS011;10054;59.332;18.244;2023-08-06T02:51:04;3.20;;;2.90;;
19788;SDS011;10054;59.332;18.244;2023-08-06T02:53:33;3.10;;;2.70;;
19788;SDS011;10054;59.332;18.244;2023-08-06T02:56:03;5.57;;;3.20;;
19788;SDS011;10054;59.332;18.244;2023-08-06T02:58:34;4.20;;;3.17;;
19788;SDS011;10054;59.332;18.244;2023-08-06T03:01:05;4.47;;;3.03;;
19788;SDS011;10054;59.332;18.244;2023-08-06T03:03:36;4.70;;;3.10;;
19788;SDS011;10054;59.332;18.244;2023-08-06T03:06:06;4.33;;;3.10;;
19788;SDS011;10054;59.332;18.244;2023-08-06T03:08:36;5.10;;;3.43;;
19788;SDS011;10054;59.332;18.244;2023-08-06T03:11:05;3.40;;;3.10;;
19788;SDS011;10054;59.332;18.244;2023-08-06T03:13:35;3.63;;;2.97;;
19788;SDS011;10054;59.332;18.244;2023-08-06T03:16:04;6.03;;;3.10;;
19788;SDS011;10054;59.332;18.244;2023-08-06T03:18:33;4.97;;;3.10;;
19788;SDS011;10054;59.332;18.244;2023-08-06T03:21:03;4.37;;;2.83;;
19788;SDS011;10054;59.332;18.244;2023-08-06T03:23:32;3.43;;;3.00;;
19788;SDS011;10054;59.332;18.244;2023-08-06T03:26:04;8.20;;;3.50;;
19788;SDS011;10054;59.332;18.244;2023-08-06T03:28:33;6.57;;;3.00;;
19788;SDS011;10054;59.332;18.244;2023-08-06T03:31:02;5.97;;;2.67;;
19788;SDS011;10054;59.332;18.244;2023-08-06T03:33:39;4.47;;;3.00;;
19788;SDS011;10054;59.332;18.244;2023-08-06T03:36:09;2.90;;;2.60;;
19788;SDS011;10054;59.332;18.244;2023-08-06T03:38:38;3.33;;;3.00;;
19788;SDS011;10054;59.332;18.244;2023-08-06T03:41:07;4.83;;;3.00;;
19788;SDS011;10054;59.332;18.244;2023-08-06T03:43:37;5.33;;;2.87;;
19788;SDS011;10054;59.332;18.244;2023-08-06T03:46:07;2.97;;;2.77;;
19788;SDS011;10054;59.332;18.244;2023-08-06T03:48:37;5.03;;;2.83;;
19788;SDS011;10054;59.332;18.244;2023-08-06T03:51:05;3.07;;;2.80;;
19788;SDS011;10054;59.332;18.244;2023-08-06T03:53:35;2.77;;;2.57;;
19788;SDS011;10054;59.332;18.244;2023-08-06T03:56:04;3.03;;;2.70;;
19788;SDS011;10054;59.332;18.244;2023-08-06T03:58:33;5.40;;;3.30;;
19788;SDS011;10054;59.332;18.244;2023-08-06T04:01:02;5.67;;;3.47;;
19788;SDS011;10054;59.332;18.244;2023-08-06T04:03:36;3.60;;;3.30;;
19788;SDS011;10054;59.332;18.244;2023-08-06T04:06:04;4.10;;;2.97;;
19788;SDS011;10054;59.332;18.244;2023-08-06T04:08:34;3.60;;;3.23;;
19788;SDS011;10054;59.332;18.244;2023-08-06T04:11:03;4.73;;;3.27;;
19788;SDS011;10054;59.332;18.244;2023-08-06T04:13:32;4.77;;;3.63;;
19788;SDS011;10054;59.332;18.244;2023-08-06T04:16:01;3.80;;;3.40;;
19788;SDS011;10054;59.332;18.244;2023-08-06T04:18:31;5.90;;;3.63;;
19788;SDS011;10054;59.332;18.244;2023-08-06T04:21:01;4.40;;;4.00;;
19788;SDS011;10054;59.332;18.244;2023-08-06T04:23:30;4.67;;;3.97;;
19788;SDS011;10054;59.332;18.244;2023-08-06T04:26:00;5.23;;;3.87;;
19788;SDS011;10054;59.332;18.244;2023-08-06T04:28:30;8.07;;;4.10;;
19788;SDS011;10054;59.332;18.244;2023-08-06T04:30:59;5.20;;;3.67;;
19788;SDS011;10054;59.332;18.244;2023-08-06T04:33:30;8.63;;;3.87;;
19788;SDS011;10054;59.332;18.244;2023-08-06T04:36:00;4.90;;;3.53;;
19788;SDS011;10054;59.332;18.244;2023-08-06T04:38:29;5.33;;;3.77;;
19788;SDS011;10054;59.332;18.244;2023-08-06T04:40:58;5.23;;;3.60;;
19788;SDS011;10054;59.332;18.244;2023-08-06T04:43:27;6.40;;;3.70;;
19788;SDS011;10054;59.332;18.244;2023-08-06T04:45:56;8.23;;;3.80;;
19788;SDS011;10054;59.332;18.244;2023-08-06T04:48:25;5.97;;;3.70;;
19788;SDS011;10054;59.332;18.244;2023-08-06T04:50:54;4.90;;;3.90;;
19788;SDS011;10054;59.332;18.244;2023-08-06T04:53:22;4.37;;;3.57;;
19788;SDS011;10054;59.332;18.244;2023-08-06T04:55:51;4.73;;;3.70;;
19788;SDS011;10054;59.332;18.244;2023-08-06T04:58:20;6.50;;;3.80;;
19788;SDS011;10054;59.332;18.244;2023-08-06T05:00:49;5.93;;;3.60;;
19788;SDS011;10054;59.332;18.244;2023-08-06T05:03:18;5.37;;;3.47;;
19788;SDS011;10054;59.332;18.244;2023-08-06T05:05:47;6.17;;;3.80;;
19788;SDS011;10054;59.332;18.244;2023-08-06T05:08:16;6.10;;;3.57;;
19788;SDS011;10054;59.332;18.244;2023-08-06T05:10:45;4.63;;;3.57;;
19788;SDS011;10054;59.332;18.244;2023-08-06T05:13:14;4.83;;;3.60;;
19788;SDS011;10054;59.332;18.244;2023-08-06T05:15:43;8.07;;;3.80;;
19788;SDS011;10054;59.332;18.244;2023-08-06T05:18:13;4.17;;;3.70;;
19788;SDS011;10054;59.332;18.244;2023-08-06T05:20:42;4.13;;;3.13;;
19788;SDS011;10054;59.332;18.244;2023-08-06T05:23:10;4.80;;;3.23;;
19788;SDS011;10054;59.332;18.244;2023-08-06T05:25:39;4.30;;;3.20;;
19788;SDS011;10054;59.332;18.244;2023-08-06T05:28:08;5.17;;;3.23;;
19788;SDS011;10054;59.332;18.244;2023-08-06T05:30:40;8.10;;;3.27;;
19788;SDS011;10054;59.332;18.244;2023-08-06T05:33:09;4.73;;;3.10;;
19788;SDS011;10054;59.332;18.244;2023-08-06T05:35:37;4.20;;;3.10;;
19788;SDS011;10054;59.332;18.244;2023-08-06T05:38:08;3.57;;;2.97;;
19788;SDS011;10054;59.332;18.244;2023-08-06T05:40:37;4.37;;;3.10;;
19788;SDS011;10054;59.332;18.244;2023-08-06T05:43:06;5.67;;;3.10;;
19788;SDS011;10054;59.332;18.244;2023-08-06T05:45:34;3.72;;;2.80;;
19788;SDS011;10054;59.332;18.244;2023-08-06T05:48:03;5.33;;;3.00;;
19788;SDS011;10054;59.332;18.244;2023-08-06T05:50:32;3.62;;;2.90;;
19788;SDS011;10054;59.332;18.244;2023-08-06T05:53:01;4.43;;;2.80;;
19788;SDS011;10054;59.332;18.244;2023-08-06T05:55:30;6.63;;;3.40;;
19788;SDS011;10054;59.332;18.244;2023-08-06T05:57:59;4.87;;;2.70;;
19788;SDS011;10054;59.332;18.244;2023-08-06T06:00:29;5.70;;;2.80;;
19788;SDS011;10054;59.332;18.244;2023-08-06T06:02:57;3.45;;;2.65;;
19788;SDS011;10054;59.332;18.244;2023-08-06T06:05:26;3.10;;;2.53;;
19788;SDS011;10054;59.332;18.244;2023-08-06T06:07:55;2.87;;;2.50;;
19788;SDS011;10054;59.332;18.244;2023-08-06T06:10:23;3.23;;;2.60;;
19788;SDS011;10054;59.332;18.244;2023-08-06T06:12:52;4.73;;;2.67;;
19788;SDS011;10054;59.332;18.244;2023-08-06T06:15:21;3.80;;;2.90;;
19788;SDS011;10054;59.332;18.244;2023-08-06T06:17:50;3.50;;;2.77;;
19788;SDS011;10054;59.332;18.244;2023-08-06T06:20:19;3.63;;;2.77;;
19788;SDS011;10054;59.332;18.244;2023-08-06T06:22:48;4.20;;;2.77;;
19788;SDS011;10054;59.332;18.244;2023-08-06T06:25:17;2.53;;;2.33;;
19788;SDS011;10054;59.332;18.244;2023-08-06T06:27:46;4.73;;;2.70;;
19788;SDS011;10054;59.332;18.244;2023-08-06T06:30:15;3.27;;;2.93;;
19788;SDS011;10054;59.332;18.244;2023-08-06T06:32:45;3.70;;;3.07;;
19788;SDS011;10054;59.332;18.244;2023-08-06T06:35:13;2.97;;;2.60;;
19788;SDS011;10054;59.332;18.244;2023-08-06T06:37:42;2.80;;;2.47;;
19788;SDS011;10054;59.332;18.244;2023-08-06T06:40:11;4.70;;;2.63;;
19788;SDS011;10054;59.332;18.244;2023-08-06T06:42:39;4.85;;;2.70;;
19788;SDS011;10054;59.332;18.244;2023-08-06T06:45:09;4.10;;;2.62;;
19788;SDS011;10054;59.332;18.244;2023-08-06T06:47:38;4.45;;;3.10;;
19788;SDS011;10054;59.332;18.244;2023-08-06T06:50:07;4.83;;;3.10;;
19788;SDS011;10054;59.332;18.244;2023-08-06T06:52:36;4.43;;;3.03;;
19788;SDS011;10054;59.332;18.244;2023-08-06T06:55:06;4.65;;;3.00;;
19788;SDS011;10054;59.332;18.244;2023-08-06T06:57:35;6.07;;;3.27;;
19788;SDS011;10054;59.332;18.244;2023-08-06T07:00:04;4.17;;;2.73;;
19788;SDS011;10054;59.332;18.244;2023-08-06T07:02:33;3.97;;;2.80;;
19788;SDS011;10054;59.332;18.244;2023-08-06T07:05:02;3.63;;;2.97;;
19788;SDS011;10054;59.332;18.244;2023-08-06T07:07:33;3.67;;;2.70;;
19788;SDS011;10054;59.332;18.244;2023-08-06T07:10:02;6.53;;;3.20;;
19788;SDS011;10054;59.332;18.244;2023-08-06T07:12:31;4.10;;;3.08;;
19788;SDS011;10054;59.332;18.244;2023-08-06T07:15:00;5.23;;;3.13;;
19788;SDS011;10054;59.332;18.244;2023-08-06T07:17:29;5.83;;;3.40;;
19788;SDS011;10054;59.332;18.244;2023-08-06T07:19:58;4.08;;;2.80;;
19788;SDS011;10054;59.332;18.244;2023-08-06T07:22:28;4.60;;;3.12;;
19788;SDS011;10054;59.332;18.244;2023-08-06T07:24:57;4.60;;;3.35;;
19788;SDS011;10054;59.332;18.244;2023-08-06T07:27:25;4.53;;;2.58;;
19788;SDS011;10054;59.332;18.244;2023-08-06T07:29:54;4.60;;;3.00;;
19788;SDS011;10054;59.332;18.244;2023-08-06T07:32:24;5.15;;;3.08;;
19788;SDS011;10054;59.332;18.244;2023-08-06T07:34:54;3.80;;;2.72;;
19788;SDS011;10054;59.332;18.244;2023-08-06T07:37:24;6.42;;;3.05;;
19788;SDS011;10054;59.332;18.244;2023-08-06T07:39:55;3.15;;;2.70;;
19788;SDS011;10054;59.332;18.244;2023-08-06T07:42:24;4.47;;;3.00;;
19788;SDS011;10054;59.332;18.244;2023-08-06T07:44:58;6.40;;;2.90;;
19788;SDS011;10054;59.332;18.244;2023-08-06T07:47:24;4.17;;;2.60;;
19788;SDS011;10054;59.332;18.244;2023-08-06T07:49:52;6.80;;;2.90;;
19788;SDS011;10054;59.332;18.244;2023-08-06T07:52:21;5.40;;;2.77;;
19788;SDS011;10054;59.332;18.244;2023-08-06T07:54:50;5.80;;;3.00;;
19788;SDS011;10054;59.332;18.244;2023-08-06T07:57:19;6.20;;;2.80;;
19788;SDS011;10054;59.332;18.244;2023-08-06T07:59:48;5.20;;;2.58;;
19788;SDS011;10054;59.332;18.244;2023-08-06T08:02:17;4.30;;;2.58;;
19788;SDS011;10054;59.332;18.244;2023-08-06T08:04:46;6.83;;;2.73;;
19788;SDS011;10054;59.332;18.244;2023-08-06T08:07:15;2.92;;;2.33;;
19788;SDS011;10054;59.332;18.244;2023-08-06T08:09:47;8.00;;;2.72;;
19788;SDS011;10054;59.332;18.244;2023-08-06T08:12:16;6.15;;;2.75;;
19788;SDS011;10054;59.332;18.244;2023-08-06T08:14:45;5.90;;;2.90;;
19788;SDS011;10054;59.332;18.244;2023-08-06T08:17:13;6.47;;;2.90;;
19788;SDS011;10054;59.332;18.244;2023-08-06T08:19:43;6.30;;;2.90;;
19788;SDS011;10054;59.332;18.244;2023-08-06T08:22:11;4.72;;;2.50;;
19788;SDS011;10054;59.332;18.244;2023-08-06T08:24:40;4.67;;;2.60;;
19788;SDS011;10054;59.332;18.244;2023-08-06T08:27:09;5.87;;;2.70;;
19788;SDS011;10054;59.332;18.244;2023-08-06T08:29:38;6.27;;;2.70;;
19788;SDS011;10054;59.332;18.244;2023-08-06T08:32:07;5.12;;;2.65;;
19788;SDS011;10054;59.332;18.244;2023-08-06T08:34:38;4.35;;;2.60;;
19788;SDS011;10054;59.332;18.244;2023-08-06T08:37:07;6.00;;;2.80;;
19788;SDS011;10054;59.332;18.244;2023-08-06T08:39:36;3.60;;;2.97;;
19788;SDS011;10054;59.332;18.244;2023-08-06T08:42:05;6.03;;;3.05;;
19788;SDS011;10054;59.332;18.244;2023-08-06T08:44:34;4.47;;;2.70;;
19788;SDS011;10054;59.332;18.244;2023-08-06T08:47:09;4.78;;;2.58;;
19788;SDS011;10054;59.332;18.244;2023-08-06T08:49:38;8.38;;;3.40;;
19788;SDS011;10054;59.332;18.244;2023-08-06T08:52:08;7.03;;;3.10;;
19788;SDS011;10054;59.332;18.244;2023-08-06T08:54:39;7.28;;;3.10;;
19788;SDS011;10054;59.332;18.244;2023-08-06T08:57:09;4.60;;;3.05;;
19788;SDS011;10054;59.332;18.244;2023-08-06T08:59:38;6.15;;;2.58;;
19788;SDS011;10054;59.332;18.244;2023-08-06T09:02:07;4.17;;;2.60;;
19788;SDS011;10054;59.332;18.244;2023-08-06T09:04:38;6.42;;;3.62;;
19788;SDS011;10054;59.332;18.244;2023-08-06T09:07:08;4.83;;;2.75;;
19788;SDS011;10054;59.332;18.244;2023-08-06T09:09:40;5.90;;;2.75;;
19788;SDS011;10054;59.332;18.244;2023-08-06T09:12:14;6.22;;;2.70;;
19788;SDS011;10054;59.332;18.244;2023-08-06T09:14:44;5.83;;;2.75;;
19788;SDS011;10054;59.332;18.244;2023-08-06T09:17:13;5.58;;;2.60;;
19788;SDS011;10054;59.332;18.244;2023-08-06T09:19:43;4.17;;;2.77;;
19788;SDS011;10054;59.332;18.244;2023-08-06T09:22:14;6.03;;;3.00;;
19788;SDS011;10054;59.332;18.244;2023-08-06T09:24:43;5.67;;;2.73;;
19788;SDS011;10054;59.332;18.244;2023-08-06T09:27:12;6.10;;;2.90;;
19788;SDS011;10054;59.332;18.244;2023-08-06T09:29:42;5.15;;;2.70;;
19788;SDS011;10054;59.332;18.244;2023-08-06T09:32:12;5.30;;;2.70;;
19788;SDS011;10054;59.332;18.244;2023-08-06T09:34:45;5.65;;;2.72;;
19788;SDS011;10054;59.332;18.244;2023-08-06T09:37:14;3.72;;;2.50;;
19788;SDS011;10054;59.332;18.244;2023-08-06T09:39:43;7.30;;;2.50;;
19788;SDS011;10054;59.332;18.244;2023-08-06T09:42:14;5.08;;;2.65;;
19788;SDS011;10054;59.332;18.244;2023-08-06T09:44:42;3.80;;;2.50;;
19788;SDS011;10054;59.332;18.244;2023-08-06T09:47:11;3.60;;;2.45;;
19788;SDS011;10054;59.332;18.244;2023-08-06T09:49:42;5.85;;;2.50;;
19788;SDS011;10054;59.332;18.244;2023-08-06T09:52:12;6.42;;;2.80;;
19788;SDS011;10054;59.332;18.244;2023-08-06T09:54:43;5.90;;;2.70;;
19788;SDS011;10054;59.332;18.244;2023-08-06T09:57:12;3.90;;;2.73;;
19788;SDS011;10054;59.332;18.244;2023-08-06T09:59:43;6.33;;;3.00;;
19788;SDS011;10054;59.332;18.244;2023-08-06T10:02:14;4.60;;;2.83;;
19788;SDS011;10054;59.332;18.244;2023-08-06T10:04:44;4.83;;;3.23;;
19788;SDS011;10054;59.332;18.244;2023-08-06T10:07:13;5.28;;;2.95;;
19788;SDS011;10054;59.332;18.244;2023-08-06T10:09:44;5.00;;;3.20;;
19788;SDS011;10054;59.332;18.244;2023-08-06T10:12:13;4.03;;;2.75;;
19788;SDS011;10054;59.332;18.244;2023-08-06T10:14:44;5.10;;;3.10;;
19788;SDS011;10054;59.332;18.244;2023-08-06T10:17:15;9.63;;;3.00;;
19788;SDS011;10054;59.332;18.244;2023-08-06T10:19:44;5.80;;;3.20;;
19788;SDS011;10054;59.332;18.244;2023-08-06T10:22:15;7.20;;;3.25;;
19788;SDS011;10054;59.332;18.244;2023-08-06T10:24:54;3.62;;;2.92;;
19788;SDS011;10054;59.332;18.244;2023-08-06T10:27:28;7.07;;;3.20;;
19788;SDS011;10054;59.332;18.244;2023-08-06T10:32:57;6.30;;;2.70;;
19788;SDS011;10054;59.332;18.244;2023-08-06T10:35:31;3.90;;;3.10;;
19788;SDS011;10054;59.332;18.244;2023-08-06T10:40:40;4.27;;;2.80;;
19788;SDS011;10054;59.332;18.244;2023-08-06T10:43:24;6.03;;;3.00;;
19788;SDS011;10054;59.332;18.244;2023-08-06T10:45:42;5.20;;;2.40;;
19788;SDS011;10054;59.332;18.244;2023-08-06T10:48:14;6.20;;;3.27;;
19788;SDS011;10054;59.332;18.244;2023-08-06T10:50:46;4.57;;;2.83;;
19788;SDS011;10054;59.332;18.244;2023-08-06T10:53:16;5.60;;;3.20;;
19788;SDS011;10054;59.332;18.244;2023-08-06T10:55:45;8.50;;;3.60;;
19788;SDS011;10054;59.332;18.244;2023-08-06T10:58:17;7.55;;;3.37;;
19788;SDS011;10054;59.332;18.244;2023-08-06T11:00:46;6.20;;;3.33;;
19788;SDS011;10054;59.332;18.244;2023-08-06T11:03:15;8.13;;;3.87;;
19788;SDS011;10054;59.332;18.244;2023-08-06T11:05:50;7.03;;;3.33;;
19788;SDS011;10054;59.332;18.244;2023-08-06T11:08:26;5.17;;;3.33;;
19788;SDS011;10054;59.332;18.244;2023-08-06T11:11:07;5.97;;;3.43;;
19788;SDS011;10054;59.332;18.244;2023-08-06T11:13:40;7.70;;;3.47;;
19788;SDS011;10054;59.332;18.244;2023-08-06T11:16:19;6.03;;;3.45;;
19788;SDS011;10054;59.332;18.244;2023-08-06T11:18:51;7.33;;;3.70;;
19788;SDS011;10054;59.332;18.244;2023-08-06T11:21:23;6.40;;;3.60;;
19788;SDS011;10054;59.332;18.244;2023-08-06T11:23:52;6.83;;;4.17;;
19788;SDS011;10054;59.332;18.244;2023-08-06T11:26:21;6.10;;;3.90;;
19788;SDS011;10054;59.332;18.244;2023-08-06T11:28:50;9.47;;;4.50;;
19788;SDS011;10054;59.332;18.244;2023-08-06T11:31:20;8.03;;;4.57;;
19788;SDS011;10054;59.332;18.244;2023-08-06T11:33:51;9.90;;;4.20;;
19788;SDS011;10054;59.332;18.244;2023-08-06T11:36:33;5.80;;;4.17;;
19788;SDS011;10054;59.332;18.244;2023-08-06T11:39:03;6.77;;;4.20;;
19788;SDS011;10054;59.332;18.244;2023-08-06T11:41:33;8.43;;;4.13;;
19788;SDS011;10054;59.332;18.244;2023-08-06T11:44:04;5.20;;;4.13;;
19788;SDS011;10054;59.332;18.244;2023-08-06T11:46:52;6.77;;;4.37;;
19788;SDS011;10054;59.332;18.244;2023-08-06T11:52:20;6.33;;;4.47;;
19788;SDS011;10054;59.332;18.244;2023-08-06T11:54:59;5.23;;;4.63;;
19788;SDS011;10054;59.332;18.244;2023-08-06T11:57:44;9.60;;;4.73;;
19788;SDS011;10054;59.332;18.244;2023-08-06T12:00:13;9.00;;;4.90;;
19788;SDS011;10054;59.332;18.244;2023-08-06T12:02:44;5.80;;;4.97;;
19788;SDS011;10054;59.332;18.244;2023-08-06T12:05:19;9.53;;;5.13;;
19788;SDS011;10054;59.332;18.244;2023-08-06T12:07:55;7.03;;;4.97;;
19788;SDS011;10054;59.332;18.244;2023-08-06T12:10:28;7.37;;;5.37;;
19788;SDS011;10054;59.332;18.244;2023-08-06T12:12:59;6.27;;;4.67;;
19788;SDS011;10054;59.332;18.244;2023-08-06T12:15:29;6.20;;;4.40;;
19788;SDS011;10054;59.332;18.244;2023-08-06T12:17:58;6.13;;;4.63;;
19788;SDS011;10054;59.332;18.244;2023-08-06T12:20:27;9.17;;;5.17;;
19788;SDS011;10054;59.332;18.244;2023-08-06T12:22:56;5.63;;;4.70;;
19788;SDS011;10054;59.332;18.244;2023-08-06T12:25:24;8.33;;;5.20;;
19788;SDS011;10054;59.332;18.244;2023-08-06T12:27:53;7.70;;;4.60;;
19788;SDS011;10054;59.332;18.244;2023-08-06T12:30:24;9.60;;;4.93;;
19788;SDS011;10054;59.332;18.244;2023-08-06T12:32:53;5.97;;;4.80;;
19788;SDS011;10054;59.332;18.244;2023-08-06T12:35:22;7.13;;;4.60;;
19788;SDS011;10054;59.332;18.244;2023-08-06T12:37:52;9.47;;;4.90;;
19788;SDS011;10054;59.332;18.244;2023-08-06T12:40:21;6.97;;;4.47;;
19788;SDS011;10054;59.332;18.244;2023-08-06T12:42:50;7.67;;;4.83;;
19788;SDS011;10054;59.332;18.244;2023-08-06T12:45:19;9.60;;;4.83;;
19788;SDS011;10054;59.332;18.244;2023-08-06T12:47:47;7.43;;;5.37;;
19788;SDS011;10054;59.332;18.244;2023-08-06T12:50:16;5.83;;;5.23;;
19788;SDS011;10054;59.332;18.244;2023-08-06T12:52:45;6.13;;;4.87;;
19788;SDS011;10054;59.332;18.244;2023-08-06T12:55:14;10.60;;;5.17;;
19788;SDS011;10054;59.332;18.244;2023-08-06T12:57:42;9.63;;;5.00;;
19788;SDS011;10054;59.332;18.244;2023-08-06T13:00:11;8.43;;;5.20;;
19788;SDS011;10054;59.332;18.244;2023-08-06T13:02:40;7.47;;;5.20;;
19788;SDS011;10054;59.332;18.244;2023-08-06T13:05:09;7.43;;;4.83;;
19788;SDS011;10054;59.332;18.244;2023-08-06T13:07:37;8.50;;;5.23;;
19788;SDS011;10054;59.332;18.244;2023-08-06T13:10:07;11.87;;;5.60;;
19788;SDS011;10054;59.332;18.244;2023-08-06T13:12:36;7.20;;;5.00;;
19788;SDS011;10054;59.332;18.244;2023-08-06T13:15:05;6.13;;;5.10;;
19788;SDS011;10054;59.332;18.244;2023-08-06T13:17:35;7.87;;;5.27;;
19788;SDS011;10054;59.332;18.244;2023-08-06T13:20:04;9.87;;;5.60;;
19788;SDS011;10054;59.332;18.244;2023-08-06T13:22:33;9.07;;;5.60;;
19788;SDS011;10054;59.332;18.244;2023-08-06T13:25:02;7.73;;;5.40;;
19788;SDS011;10054;59.332;18.244;2023-08-06T13:27:31;6.50;;;5.50;;
19788;SDS011;10054;59.332;18.244;2023-08-06T13:30:00;6.17;;;5.17;;
19788;SDS011;10054;59.332;18.244;2023-08-06T13:32:29;9.37;;;5.60;;
19788;SDS011;10054;59.332;18.244;2023-08-06T13:34:59;5.80;;;5.20;;
19788;SDS011;10054;59.332;18.244;2023-08-06T13:37:28;10.03;;;5.40;;
19788;SDS011;10054;59.332;18.244;2023-08-06T13:39:56;7.63;;;5.47;;
19788;SDS011;10054;59.332;18.244;2023-08-06T13:42:25;7.60;;;5.07;;
19788;SDS011;10054;59.332;18.244;2023-08-06T13:44:55;7.57;;;5.13;;
19788;SDS011;10054;59.332;18.244;2023-08-06T13:47:25;6.37;;;4.80;;
19788;SDS011;10054;59.332;18.244;2023-08-06T13:49:54;6.60;;;4.83;;
19788;SDS011;10054;59.332;18.244;2023-08-06T13:52:25;7.03;;;5.00;;
19788;SDS011;10054;59.332;18.244;2023-08-06T13:54:54;6.70;;;5.27;;
19788;SDS011;10054;59.332;18.244;2023-08-06T13:57:23;5.90;;;4.93;;
19788;SDS011;10054;59.332;18.244;2023-08-06T13:59:51;7.77;;;5.30;;
19788;SDS011;10054;59.332;18.244;2023-08-06T14:02:20;8.27;;;5.30;;
19788;SDS011;10054;59.332;18.244;2023-08-06T14:04:50;11.43;;;5.50;;
19788;SDS011;10054;59.332;18.244;2023-08-06T14:07:20;8.83;;;5.03;;
19788;SDS011;10054;59.332;18.244;2023-08-06T14:09:48;6.80;;;5.20;;
19788;SDS011;10054;59.332;18.244;2023-08-06T14:12:17;9.40;;;5.20;;
19788;SDS011;10054;59.332;18.244;2023-08-06T14:14:47;7.17;;;4.93;;
19788;SDS011;10054;59.332;18.244;2023-08-06T14:17:15;9.43;;;5.27;;
19788;SDS011;10054;59.332;18.244;2023-08-06T14:19:44;5.13;;;4.63;;
19788;SDS011;10054;59.332;18.244;2023-08-06T14:22:13;7.53;;;5.07;;
19788;SDS011;10054;59.332;18.244;2023-08-06T14:24:42;7.43;;;5.40;;
19788;SDS011;10054;59.332;18.244;2023-08-06T14:27:10;9.13;;;5.43;;
19788;SDS011;10054;59.332;18.244;2023-08-06T14:29:39;8.80;;;5.47;;
19788;SDS011;10054;59.332;18.244;2023-08-06T14:32:08;7.87;;;5.80;;
19788;SDS011;10054;59.332;18.244;2023-08-06T14:34:37;8.10;;;5.60;;
19788;SDS011;10054;59.332;18.244;2023-08-06T14:37:05;7.30;;;5.40;;
19788;SDS011;10054;59.332;18.244;2023-08-06T14:39:34;7.37;;;5.27;;
19788;SDS011;10054;59.332;18.244;2023-08-06T14:42:04;5.80;;;5.20;;
19788;SDS011;10054;59.332;18.244;2023-08-06T14:44:33;7.97;;;5.17;;
19788;SDS011;10054;59.332;18.244;2023-08-06T14:47:02;9.23;;;5.53;;
19788;SDS011;10054;59.332;18.244;2023-08-06T14:49:31;13.17;;;5.53;;
19788;SDS011;10054;59.332;18.244;2023-08-06T14:52:00;7.83;;;5.47;;
19788;SDS011;10054;59.332;18.244;2023-08-06T14:54:29;7.67;;;5.33;;
19788;SDS011;10054;59.332;18.244;2023-08-06T14:56:57;10.10;;;5.40;;
19788;SDS011;10054;59.332;18.244;2023-08-06T14:59:26;7.23;;;5.30;;